sensor_id;sensor_type;location;lat;lon;timestamp;pressure;altitude;pressure_sealevel;temperature;humidity
63901;BME280;50538;53.482;10.294;2023-04-10T00:05:46;102113.47;;;6.97;95.20
63901;BME280;50538;53.482;10.294;2023-04-10T00:16:19;102110.41;;;6.91;95.38
63901;BME280;50538;53.482;10.294;2023-04-10T00:26:37;102086.44;;;6.81;95.52
63901;BME280;50538;53.482;10.294;2023-04-10T00:36:48;102070.41;;;6.72;96.18
63901;BME280;50538;53.482;10.294;2023-04-10T00:47:22;102074.22;;;6.67;96.43
63901;BME280;50538;53.482;10.294;2023-04-10T00:57:29;102065.88;;;6.61;97.38
63901;BME280;50538;53.482;10.294;2023-04-10T01:18:49;102071.78;;;6.52;97.15
63901;BME280;50538;53.482;10.294;2023-04-10T01:29:12;102073.06;;;6.46;97.28
63901;BME280;50538;53.482;10.294;2023-04-10T01:39:23;102055.13;;;6.39;97.23
63901;BME280;50538;53.482;10.294;2023-04-10T01:50:02;102059.97;;;6.32;97.22
63901;BME280;50538;53.482;10.294;2023-04-10T02:21:32;102024.31;;;6.14;98.45
63901;BME280;50538;53.482;10.294;2023-04-10T02:31:42;102011.44;;;6.09;99.13
63901;BME280;50538;53.482;10.294;2023-04-10T02:42:33;102005.44;;;6.07;99.63
63901;BME280;50538;53.482;10.294;2023-04-10T03:03:10;101998.78;;;6.01;99.40
63901;BME280;50538;53.482;10.294;2023-04-10T03:13:22;101985.72;;;6.00;99.32
63901;BME280;50538;53.482;10.294;2023-04-10T03:23:57;101958.72;;;5.96;99.63
63901;BME280;50538;53.482;10.294;2023-04-10T03:34:06;101964.19;;;5.93;99.08
63901;BME280;50538;53.482;10.294;2023-04-10T03:44:46;101963.16;;;5.96;98.76
63901;BME280;50538;53.482;10.294;2023-04-10T03:55:10;101941.53;;;5.91;98.39
63901;BME280;50538;53.482;10.294;2023-04-10T04:05:32;101928.81;;;5.85;97.95
63901;BME280;50538;53.482;10.294;2023-04-10T04:15:32;101947.78;;;5.77;97.43
63901;BME280;50538;53.482;10.294;2023-04-10T04:25:51;101940.28;;;5.71;97.21
63901;BME280;50538;53.482;10.294;2023-04-10T04:36:04;101932.06;;;5.63;97.23
63901;BME280;50538;53.482;10.294;2023-04-10T04:46:06;101943.00;;;5.57;97.17
63901;BME280;50538;53.482;10.294;2023-04-10T04:56:33;101939.53;;;5.56;96.98
63901;BME280;50538;53.482;10.294;2023-04-10T05:07:00;101943.84;;;5.57;96.99
63901;BME280;50538;53.482;10.294;2023-04-10T05:17:16;101946.19;;;5.62;97.86
63901;BME280;50538;53.482;10.294;2023-04-10T05:27:22;101948.19;;;5.71;98.23
63901;BME280;50538;53.482;10.294;2023-04-10T05:37:27;101938.19;;;5.89;98.59
63901;BME280;50538;53.482;10.294;2023-04-10T05:47:38;101935.72;;;6.11;98.41
63901;BME280;50538;53.482;10.294;2023-04-10T05:58:12;101920.63;;;6.50;98.13
63901;BME280;50538;53.482;10.294;2023-04-10T06:08:22;101917.34;;;7.07;96.58
63901;BME280;50538;53.482;10.294;2023-04-10T06:19:11;101900.94;;;7.72;93.30
63901;BME280;50538;53.482;10.294;2023-04-10T06:29:25;101900.59;;;8.21;88.56
63901;BME280;50538;53.482;10.294;2023-04-10T06:39:33;101879.81;;;8.59;85.99
63901;BME280;50538;53.482;10.294;2023-04-10T06:49:51;101859.19;;;8.95;83.49
63901;BME280;50538;53.482;10.294;2023-04-10T07:00:13;101866.09;;;9.18;82.15
63901;BME280;50538;53.482;10.294;2023-04-10T07:10:19;101849.19;;;9.40;79.94
63901;BME280;50538;53.482;10.294;2023-04-10T07:20:41;101864.16;;;9.72;79.31
63901;BME280;50538;53.482;10.294;2023-04-10T07:30:51;101850.06;;;10.21;78.12
63901;BME280;50538;53.482;10.294;2023-04-10T07:52:37;101825.63;;;11.33;73.39
63901;BME280;50538;53.482;10.294;2023-04-10T08:02:57;101822.31;;;11.86;71.17
63901;BME280;50538;53.482;10.294;2023-04-10T08:13:29;101828.25;;;12.52;69.10
63901;BME280;50538;53.482;10.294;2023-04-10T09:28:25;101708.50;;;16.41;50.40
63901;BME280;50538;53.482;10.294;2023-04-10T09:39:10;101692.88;;;16.82;49.73
63901;BME280;50538;53.482;10.294;2023-04-10T10:00:25;101644.06;;;17.52;45.08
63901;BME280;50538;53.482;10.294;2023-04-10T10:10:27;101611.09;;;17.79;44.19
63901;BME280;50538;53.482;10.294;2023-04-10T10:20:44;101583.03;;;18.10;44.56
63901;BME280;50538;53.482;10.294;2023-04-10T10:31:10;101578.00;;;18.49;44.03
63901;BME280;50538;53.482;10.294;2023-04-10T10:52:57;101546.28;;;18.79;39.74
63901;BME280;50538;53.482;10.294;2023-04-10T11:03:41;101521.38;;;19.12;40.45
63901;BME280;50538;53.482;10.294;2023-04-10T11:24:51;101471.44;;;19.03;38.83
63901;BME280;50538;53.482;10.294;2023-04-10T11:35:08;101446.88;;;19.39;37.13
63901;BME280;50538;53.482;10.294;2023-04-10T11:45:45;101430.91;;;19.44;36.01
63901;BME280;50538;53.482;10.294;2023-04-10T11:56:18;101409.38;;;19.57;34.19
63901;BME280;50538;53.482;10.294;2023-04-10T12:06:35;101392.09;;;19.84;34.20
63901;BME280;50538;53.482;10.294;2023-04-10T12:16:55;101382.38;;;19.77;34.48
63901;BME280;50538;53.482;10.294;2023-04-10T12:37:51;101342.69;;;20.10;34.09
63901;BME280;50538;53.482;10.294;2023-04-10T12:48:07;101328.59;;;20.08;34.25
63901;BME280;50538;53.482;10.294;2023-04-10T12:58:33;101300.88;;;19.88;34.04
63901;BME280;50538;53.482;10.294;2023-04-10T13:09:32;101296.59;;;19.74;33.69
63901;BME280;50538;53.482;10.294;2023-04-10T13:19:58;101261.94;;;19.77;33.52
63901;BME280;50538;53.482;10.294;2023-04-10T13:41:06;101222.41;;;19.71;34.75
63901;BME280;50538;53.482;10.294;2023-04-10T14:01:42;101180.88;;;19.34;37.83
63901;BME280;50538;53.482;10.294;2023-04-10T14:12:08;101149.88;;;19.12;38.99
63901;BME280;50538;53.482;10.294;2023-04-10T14:22:09;101119.88;;;19.02;37.96
63901;BME280;50538;53.482;10.294;2023-04-10T14:32:23;101111.22;;;18.93;39.90
63901;BME280;50538;53.482;10.294;2023-04-10T14:42:54;101083.09;;;18.82;39.62
63901;BME280;50538;53.482;10.294;2023-04-10T14:53:21;101064.06;;;18.77;41.51
63901;BME280;50538;53.482;10.294;2023-04-10T15:03:47;101034.69;;;18.76;42.25
63901;BME280;50538;53.482;10.294;2023-04-10T15:14:05;101003.22;;;18.76;41.53
63901;BME280;50538;53.482;10.294;2023-04-10T15:24:40;100975.06;;;18.79;40.59
63901;BME280;50538;53.482;10.294;2023-04-10T15:34:44;100954.63;;;18.65;39.67
63901;BME280;50538;53.482;10.294;2023-04-10T15:44:54;100935.47;;;18.55;40.82
63901;BME280;50538;53.482;10.294;2023-04-10T15:55:13;100916.69;;;18.41;42.34
63901;BME280;50538;53.482;10.294;2023-04-10T16:05:14;100896.44;;;18.39;42.25
63901;BME280;50538;53.482;10.294;2023-04-10T16:15:22;100887.75;;;18.37;43.05
63901;BME280;50538;53.482;10.294;2023-04-10T16:25:23;100866.56;;;18.02;43.40
63901;BME280;50538;53.482;10.294;2023-04-10T16:35:27;100852.59;;;17.67;44.70
63901;BME280;50538;53.482;10.294;2023-04-10T16:45:38;100828.25;;;17.36;45.05
63901;BME280;50538;53.482;10.294;2023-04-10T16:56:00;100810.69;;;17.13;45.96
63901;BME280;50538;53.482;10.294;2023-04-10T17:06:07;100806.38;;;16.86;45.93
63901;BME280;50538;53.482;10.294;2023-04-10T17:16:18;100771.69;;;16.65;47.93
63901;BME280;50538;53.482;10.294;2023-04-10T17:26:22;100746.91;;;16.43;47.86
63901;BME280;50538;53.482;10.294;2023-04-10T17:46:58;100737.53;;;16.06;49.11
63901;BME280;50538;53.482;10.294;2023-04-10T17:57:29;100726.53;;;15.87;48.83
63901;BME280;50538;53.482;10.294;2023-04-10T18:19:07;100685.84;;;15.51;49.77
63901;BME280;50538;53.482;10.294;2023-04-10T18:29:59;100691.13;;;15.38;50.49
63901;BME280;50538;53.482;10.294;2023-04-10T18:40:21;100691.47;;;15.28;50.71
63901;BME280;50538;53.482;10.294;2023-04-10T19:01:22;100662.94;;;15.07;50.75
63901;BME280;50538;53.482;10.294;2023-04-10T19:22:30;100629.31;;;14.91;51.84
63901;BME280;50538;53.482;10.294;2023-04-10T19:33:01;100619.63;;;14.84;52.16
63901;BME280;50538;53.482;10.294;2023-04-10T19:43:52;100592.41;;;14.74;51.72
63901;BME280;50538;53.482;10.294;2023-04-10T19:54:17;100591.78;;;14.72;52.18
63901;BME280;50538;53.482;10.294;2023-04-10T20:04:21;100558.59;;;14.59;52.07
63901;BME280;50538;53.482;10.294;2023-04-10T20:14:32;100541.34;;;14.55;51.98
63901;BME280;50538;53.482;10.294;2023-04-10T20:24:58;100514.38;;;14.50;51.98
63901;BME280;50538;53.482;10.294;2023-04-10T20:35:18;100477.75;;;14.44;52.59
63901;BME280;50538;53.482;10.294;2023-04-10T20:45:52;100455.97;;;14.41;52.24
63901;BME280;50538;53.482;10.294;2023-04-10T20:56:49;100440.72;;;14.35;52.56
63901;BME280;50538;53.482;10.294;2023-04-10T21:07:08;100418.50;;;14.28;52.30
63901;BME280;50538;53.482;10.294;2023-04-10T21:50:26;100378.91;;;14.03;53.00
63901;BME280;50538;53.482;10.294;2023-04-10T22:01:06;100391.63;;;14.01;54.88
63901;BME280;50538;53.482;10.294;2023-04-10T22:11:29;100394.44;;;13.86;57.28
63901;BME280;50538;53.482;10.294;2023-04-10T22:21:49;100405.22;;;13.50;65.33
63901;BME280;50538;53.482;10.294;2023-04-10T22:32:09;100393.69;;;13.01;70.75
63901;BME280;50538;53.482;10.294;2023-04-10T22:42:12;100389.59;;;12.62;73.44
63901;BME280;50538;53.482;10.294;2023-04-10T22:52:34;100372.16;;;12.30;76.82
63901;BME280;50538;53.482;10.294;2023-04-10T23:03:10;100361.75;;;11.99;80.46
63901;BME280;50538;53.482;10.294;2023-04-10T23:13:11;100353.66;;;11.78;82.82
63901;BME280;50538;53.482;10.294;2023-04-10T23:23:17;100334.41;;;11.61;84.30
63901;BME280;50538;53.482;10.294;2023-04-10T23:33:28;100319.91;;;11.49;86.38
63901;BME280;50538;53.482;10.294;2023-04-10T23:54:34;100287.03;;;11.12;90.29
